Time;durP1;ratioP1;P1;durP2;ratioP2;P2;SDS_P1;SDS_P2;PMS_P1;PMS_P2;Temp;Humidity;BMP_temperature;BMP_pressure;BME280_temperature;BME280_humidity;BME280_pressure;Samples;Min_cycle;Max_cycle;Signal;HPM_P1;HPM_P2
2021/01/22 00:00:36;;;;;;;2.93;1.77;;;;;;;-144.99;100.00;52537.78;5046244;28;20646;-77
2021/01/22 00:03:02;;;;;;;2.83;0.90;;;;;;;-144.99;100.00;52497.00;5051779;28;20201;-76
2021/01/22 00:05:29;;;;;;;3.43;1.20;;;;;;;-144.99;100.00;52545.94;5049035;28;20650;-76
2021/01/22 00:07:56;;;;;;;4.60;2.30;;;;;;;-144.99;100.00;52554.09;5053885;28;20675;-76
2021/01/22 00:10:22;;;;;;;3.17;1.60;;;;;;;-144.99;100.00;52529.63;5050990;28;20820;-77
2021/01/22 00:12:48;;;;;;;7.83;3.63;;;;;;;-144.99;100.00;52488.84;5050646;28;20818;-76
2021/01/22 00:15:15;;;;;;;3.43;1.50;;;;;;;-144.99;100.00;52503.13;5049997;28;20687;-76
2021/01/22 00:17:41;;;;;;;4.00;1.30;;;;;;;-144.99;100.00;52501.09;5046233;28;20697;-76
2021/01/22 00:20:09;;;;;;;5.13;1.50;;;;;;;-144.99;100.00;52507.19;5045390;28;20666;-77
2021/01/22 00:22:35;;;;;;;6.00;2.13;;;;;;;-144.99;100.00;52529.63;5045625;28;20743;-75
2021/01/22 00:25:02;;;;;;;2.90;1.43;;;;;;;-144.99;100.00;52545.94;5051936;28;21105;-75
2021/01/22 00:27:29;;;;;;;4.23;1.73;;;;;;;-144.99;100.00;52517.41;5047471;28;20774;-75
2021/01/22 00:29:55;;;;;;;3.30;1.90;;;;;;;-144.99;100.00;52554.09;5050181;28;20756;-73
2021/01/22 00:32:21;;;;;;;1.90;1.50;;;;;;;-144.99;100.00;52490.91;4699348;28;9999936;-76
2021/01/22 00:34:48;;;;;;;2.73;1.63;;;;;;;-144.99;100.00;52501.09;5044561;28;20743;-74
2021/01/22 00:37:14;;;;;;;2.40;1.13;;;;;;;-144.99;100.00;52486.81;5049712;28;20730;-75
2021/01/22 00:39:40;;;;;;;3.67;1.37;;;;;;;-144.99;100.00;52464.41;5046293;28;20711;-75
2021/01/22 00:42:07;;;;;;;3.40;1.10;;;;;;;-144.99;100.00;52537.78;5046449;28;20654;-76
2021/01/22 00:44:33;;;;;;;2.63;1.73;;;;;;;-144.99;100.00;52517.41;5049864;28;20289;-77
2021/01/22 00:46:59;;;;;;;3.00;1.07;;;;;;;-144.99;100.00;52525.56;5055071;28;20743;-73
2021/01/22 00:49:26;;;;;;;6.77;1.57;;;;;;;-144.99;100.00;52509.25;5045287;28;20253;-74
2021/01/22 00:51:52;;;;;;;4.27;1.33;;;;;;;-144.99;100.00;52541.84;5049139;28;20194;-73
2021/01/22 00:54:18;;;;;;;4.27;1.40;;;;;;;-144.99;100.00;52517.41;5048225;28;20766;-74
2021/01/22 00:56:44;;;;;;;1.87;1.10;;;;;;;-144.99;100.00;52492.94;5047784;28;20285;-74
2021/01/22 00:59:11;;;;;;;3.33;1.27;;;;;;;-144.99;100.00;52497.00;5050443;28;20729;-73
2021/01/22 01:01:37;;;;;;;4.00;0.93;;;;;;;-144.99;100.00;52464.41;5050533;28;20292;-73
2021/01/22 01:04:03;;;;;;;6.30;2.07;;;;;;;-144.99;100.00;52484.78;5052002;28;21988;-73
2021/01/22 01:06:29;;;;;;;1.10;0.87;;;;;;;-144.99;100.00;52521.47;5052522;28;20204;-73
2021/01/22 01:08:56;;;;;;;2.77;1.70;;;;;;;-144.99;100.00;52501.09;5037757;28;20725;-72
2021/01/22 01:11:22;;;;;;;3.17;1.37;;;;;;;-144.99;100.00;52509.25;5049640;28;20201;-72
2021/01/22 01:13:49;;;;;;;1.90;1.00;;;;;;;-144.99;100.00;52497.00;5045702;28;20261;-73
2021/01/22 01:16:16;;;;;;;1.77;1.03;;;;;;;-144.99;100.00;52476.63;5055988;28;20631;-72
2021/01/22 01:18:42;;;;;;;4.70;1.47;;;;;;;-144.99;100.00;52545.94;5047975;28;20304;-71
2021/01/22 01:21:08;;;;;;;2.73;1.30;;;;;;;-144.99;100.00;52448.09;5059871;28;20193;-73
2021/01/22 01:23:34;;;;;;;3.37;2.63;;;;;;;-144.99;100.00;52509.25;5056951;28;20206;-73
2021/01/22 01:26:01;;;;;;;6.90;4.37;;;;;;;-144.99;100.00;52492.94;5056871;28;20271;-73
2021/01/22 01:28:27;;;;;;;2.73;1.10;;;;;;;-144.99;100.00;52476.63;5050752;28;20324;-73
2021/01/22 01:30:53;;;;;;;2.67;2.03;;;;;;;-144.99;100.00;52490.91;5046968;28;20435;-73
2021/01/22 01:33:20;;;;;;;1.20;0.73;;;;;;;-144.99;100.00;52517.41;5047513;28;20288;-73
2021/01/22 01:35:51;;;;;;;2.67;1.30;;;;;;;-144.99;100.00;52521.47;5046800;28;20310;-73
2021/01/22 01:38:17;;;;;;;2.20;1.07;;;;;;;-144.99;100.00;52486.81;5049036;28;20233;-73
2021/01/22 01:40:43;;;;;;;3.73;1.40;;;;;;;-144.99;100.00;52460.31;5048667;28;20217;-73
2021/01/22 01:43:09;;;;;;;1.97;1.10;;;;;;;-144.99;100.00;52497.00;5049892;28;20641;-74
2021/01/22 01:45:39;;;;;;;4.43;1.60;;;;;;;-144.99;100.00;52439.94;5056595;28;20279;-73
2021/01/22 01:48:07;;;;;;;2.27;0.90;;;;;;;-144.99;100.00;52509.25;5050527;28;20239;-73
2021/01/22 01:50:34;;;;;;;1.77;1.13;;;;;;;-144.99;100.00;52497.00;5049657;28;20213;-73
2021/01/22 01:53:01;;;;;;;0.93;0.60;;;;;;;-144.99;100.00;52497.00;5050359;28;20502;-72
2021/01/22 01:55:27;;;;;;;1.67;0.93;;;;;;;-144.99;100.00;52456.25;5048555;28;20232;-73
2021/01/22 01:57:54;;;;;;;2.57;2.20;;;;;;;-144.99;100.00;52488.84;5047080;28;20304;-72
2021/01/22 02:00:21;;;;;;;1.80;0.93;;;;;;;-144.99;100.00;52474.59;5048108;28;20190;-72
2021/01/22 02:02:47;;;;;;;1.13;0.60;;;;;;;-144.99;100.00;52480.72;5054207;28;20285;-72
2021/01/22 02:05:14;;;;;;;1.23;1.00;;;;;;;-144.99;100.00;52476.63;5049519;28;20222;-73
2021/01/22 02:10:27;;;;;;;3.07;0.80;;;;;;;-144.99;100.00;52501.09;5048453;28;20222;-74
2021/01/22 02:12:56;;;;;;;5.40;0.93;;;;;;;-144.99;100.00;52509.25;5059637;28;20201;-75
2021/01/22 02:15:23;;;;;;;6.13;0.80;;;;;;;-144.99;100.00;52488.84;5054723;28;20209;-74
2021/01/22 02:17:51;;;;;;;2.03;0.77;;;;;;;-144.99;100.00;52509.25;5060751;28;20237;-76
2021/01/22 02:20:30;;;;;;;1.43;0.63;;;;;;;-144.99;100.00;52472.56;5038612;28;20233;-75
2021/01/22 02:22:56;;;;;;;2.03;0.90;;;;;;;-144.99;100.00;52478.66;5027136;28;20245;-75
2021/01/22 02:25:30;;;;;;;1.67;0.80;;;;;;;-144.99;100.00;52468.47;5037826;28;20235;-76
2021/01/22 02:27:58;;;;;;;1.73;1.23;;;;;;;-144.99;100.00;52533.69;5027287;28;20235;-76
2021/01/22 02:30:24;;;;;;;2.13;1.17;;;;;;;-144.99;100.00;52486.81;5039209;28;20696;-76
2021/01/22 02:32:51;;;;;;;2.00;1.87;;;;;;;-144.99;100.00;52492.94;5027796;28;20202;-78
2021/01/22 02:35:21;;;;;;;1.63;1.30;;;;;;;-144.99;100.00;52444.03;5033264;28;20237;-78
2021/01/22 02:37:49;;;;;;;1.53;0.77;;;;;;;-144.99;100.00;52494.97;5033010;28;20320;-78
2021/01/22 02:40:18;;;;;;;2.03;1.27;;;;;;;-144.99;100.00;52511.28;5036742;28;20969;-78
2021/01/22 02:42:46;;;;;;;0.60;0.57;;;;;;;-144.99;100.00;52472.56;5031764;28;20209;-78
2021/01/22 02:45:16;;;;;;;3.87;3.57;;;;;;;-144.99;100.00;52505.16;5034651;28;20719;-77
2021/01/22 02:47:44;;;;;;;1.93;0.77;;;;;;;-144.99;100.00;52452.16;5029392;28;20229;-77
2021/01/22 02:50:15;;;;;;;1.23;0.63;;;;;;;-144.99;100.00;52478.66;5029603;28;20689;-77
2021/01/22 02:52:41;;;;;;;1.73;1.07;;;;;;;-144.99;100.00;52494.97;5033504;28;20823;-77
2021/01/22 02:55:10;;;;;;;1.37;0.90;;;;;;;-144.99;100.00;52468.47;5034413;28;20241;-78
2021/01/22 02:57:40;;;;;;;2.27;1.07;;;;;;;-144.99;100.00;52497.00;5034190;28;20277;-80
2021/01/22 03:00:13;;;;;;;1.57;1.10;;;;;;;-144.99;100.00;52472.56;5034021;28;20249;-77
2021/01/22 03:02:48;;;;;;;2.20;0.80;;;;;;;-144.99;100.00;52476.63;5032495;28;20213;-75
2021/01/22 03:05:17;;;;;;;1.90;0.90;;;;;;;-144.99;100.00;52497.00;5034354;28;20281;-77
2021/01/22 03:07:47;;;;;;;1.43;0.47;;;;;;;-144.99;100.00;52472.56;5035811;28;20594;-76
2021/01/22 03:10:17;;;;;;;1.87;0.97;;;;;;;-144.99;100.00;52454.22;5036227;28;20230;-76
2021/01/22 03:12:46;;;;;;;1.70;0.73;;;;;;;-144.99;100.00;52482.75;5038432;28;20201;-76
2021/01/22 03:15:13;;;;;;;2.53;1.00;;;;;;;-144.99;100.00;52482.75;5038452;28;20260;-76
2021/01/22 03:17:40;;;;;;;2.00;1.00;;;;;;;-144.99;100.00;52505.16;5037542;28;20292;-76
2021/01/22 03:20:09;;;;;;;1.53;0.83;;;;;;;-144.99;100.00;52501.09;5032682;28;20253;-75
2021/01/22 03:22:35;;;;;;;1.27;0.67;;;;;;;-144.99;100.00;52501.09;5039201;28;20203;-76
2021/01/22 03:25:01;;;;;;;0.70;0.40;;;;;;;-144.99;100.00;52474.59;5036792;28;20202;-76
2021/01/22 03:27:27;;;;;;;1.67;0.80;;;;;;;-144.99;100.00;52488.84;5033751;28;20632;-75
2021/01/22 03:29:53;;;;;;;0.57;0.57;;;;;;;-144.99;100.00;52456.25;5036998;28;20253;-75
2021/01/22 03:32:19;;;;;;;1.17;0.70;;;;;;;-144.99;100.00;52492.94;5038117;28;20198;-76
2021/01/22 03:34:46;;;;;;;1.13;0.60;;;;;;;-144.99;100.00;52468.47;5028089;28;20206;-75
2021/01/22 03:37:13;;;;;;;1.23;0.43;;;;;;;-144.99;100.00;52456.25;5038585;28;20198;-77
2021/01/22 03:39:39;;;;;;;1.17;1.07;;;;;;;-144.99;100.00;52490.91;5043664;28;20232;-77
2021/01/22 03:42:05;;;;;;;1.50;0.70;;;;;;;-144.99;100.00;52466.44;5037400;28;20193;-76
2021/01/22 03:44:32;;;;;;;0.87;0.53;;;;;;;-144.99;100.00;52462.34;5033067;28;20206;-76
2021/01/22 03:46:58;;;;;;;1.63;0.73;;;;;;;-144.99;100.00;52484.78;5039281;28;20213;-76
2021/01/22 03:49:24;;;;;;;2.43;0.60;;;;;;;-144.99;100.00;52492.94;5032858;28;20684;-74
2021/01/22 03:51:51;;;;;;;1.70;0.63;;;;;;;-144.99;100.00;52478.66;5032155;28;20700;-76
2021/01/22 03:54:17;;;;;;;0.80;0.50;;;;;;;-144.99;100.00;52521.47;5032988;28;20273;-74
2021/01/22 03:56:43;;;;;;;0.80;0.80;;;;;;;-144.99;100.00;52468.47;5031188;28;20262;-75
2021/01/22 03:59:09;;;;;;;2.53;0.40;;;;;;;-144.99;100.00;52494.97;5029852;28;20232;-74
2021/01/22 04:01:36;;;;;;;1.03;0.67;;;;;;;-144.99;100.00;52460.31;5032020;28;20288;-74
2021/01/22 04:04:02;;;;;;;1.77;0.80;;;;;;;-144.99;100.00;52476.63;5031266;28;20198;-74
2021/01/22 04:06:28;;;;;;;4.50;0.60;;;;;;;-144.99;100.00;52490.91;5033611;28;20193;-74
2021/01/22 04:08:55;;;;;;;1.33;0.60;;;;;;;-144.99;100.00;52515.34;5037303;28;20230;-72
2021/01/22 04:11:22;;;;;;;0.60;0.40;;;;;;;-144.99;100.00;52521.47;5031290;28;20233;-74
2021/01/22 04:13:48;;;;;;;0.30;0.20;;;;;;;-144.99;100.00;52525.56;5027976;28;20214;-74
2021/01/22 04:16:15;;;;;;;0.30;0.30;;;;;;;-144.99;100.00;52492.94;5033686;28;20213;-75
2021/01/22 04:18:41;;;;;;;0.83;0.63;;;;;;;-144.99;100.00;52513.31;5029853;28;20245;-75
2021/01/22 04:21:08;;;;;;;0.60;0.40;;;;;;;-144.99;100.00;52492.94;5036393;28;20255;-72
2021/01/22 04:23:34;;;;;;;1.53;0.60;;;;;;;-144.99;100.00;52527.59;5039887;28;21199;-75
2021/01/22 04:26:01;;;;;;;2.47;0.50;;;;;;;-144.99;100.00;52494.97;5033811;28;21197;-74
2021/01/22 04:28:27;;;;;;;1.90;0.63;;;;;;;-144.99;100.00;52523.50;5032301;28;20649;-74
2021/01/22 04:30:53;;;;;;;7.73;1.07;;;;;;;-144.99;100.00;52554.09;5039899;28;21229;-75
2021/01/22 04:33:19;;;;;;;1.90;0.50;;;;;;;-144.99;100.00;52537.78;5033775;28;20987;-72
2021/01/22 04:35:46;;;;;;;0.23;0.23;;;;;;;-144.99;100.00;52570.38;5033094;28;20747;-73
2021/01/22 04:38:12;;;;;;;0.30;0.20;;;;;;;-144.99;100.00;52513.31;5037539;28;20720;-74
2021/01/22 04:40:38;;;;;;;2.50;0.40;;;;;;;-144.99;100.00;52521.47;5031456;28;20687;-74
2021/01/22 04:43:05;;;;;;;1.53;0.50;;;;;;;-144.99;100.00;52529.63;5039758;28;20656;-77
2021/01/22 04:45:31;;;;;;;1.10;0.73;;;;;;;-144.99;100.00;52525.56;5041668;28;20644;-78
2021/01/22 04:47:59;;;;;;;0.30;0.30;;;;;;;-144.99;100.00;52527.59;5036582;28;20992;-77
2021/01/22 04:50:26;;;;;;;1.30;0.40;;;;;;;-144.99;100.00;52558.16;5034393;28;20661;-76
2021/01/22 04:52:56;;;;;;;0.47;0.47;;;;;;;-144.99;100.00;52556.13;5035239;28;20621;-77
2021/01/22 04:55:26;;;;;;;0.40;0.40;;;;;;;-144.99;100.00;52521.47;5032303;28;20744;-75
2021/01/22 04:57:55;;;;;;;0.70;0.40;;;;;;;-144.99;100.00;52525.56;5033777;28;20715;-75
2021/01/22 05:00:24;;;;;;;0.30;0.30;;;;;;;-144.99;100.00;52545.94;5043575;28;20628;-74
2021/01/22 05:02:52;;;;;;;0.30;0.30;;;;;;;-144.99;100.00;52533.69;5055650;28;20655;-75
2021/01/22 05:05:20;;;;;;;0.63;0.40;;;;;;;-144.99;100.00;52558.16;5056864;28;20617;-75
2021/01/22 05:07:46;;;;;;;0.10;0.10;;;;;;;-144.99;100.00;52513.31;5056171;28;20641;-74
2021/01/22 05:10:12;;;;;;;1.83;0.40;;;;;;;-144.99;100.00;52517.41;5050605;28;20664;-74
2021/01/22 05:12:39;;;;;;;0.20;0.20;;;;;;;-144.99;100.00;52521.47;5047329;28;20608;-76
2021/01/22 05:15:17;;;;;;;0.23;0.20;;;;;;;-144.99;100.00;52531.66;5054018;28;20663;-76
2021/01/22 05:17:55;;;;;;;0.23;0.20;;;;;;;-144.99;100.00;52501.09;5059539;28;20630;-77
2021/01/22 05:20:33;;;;;;;0.80;0.40;;;;;;;-144.99;100.00;52562.25;5053951;28;21208;-77
2021/01/22 05:22:59;;;;;;;0.30;0.30;;;;;;;-144.99;100.00;52501.09;5054432;28;20617;-76
2021/01/22 05:25:26;;;;;;;3.43;0.93;;;;;;;-144.99;100.00;52517.41;5053086;28;20648;-75
2021/01/22 05:27:54;;;;;;;0.83;0.47;;;;;;;-144.99;100.00;52521.47;5043453;28;20629;-75
2021/01/22 05:30:22;;;;;;;1.47;0.47;;;;;;;-144.99;100.00;52511.28;5047711;28;20718;-74
2021/01/22 05:32:49;;;;;;;1.30;0.40;;;;;;;-144.99;100.00;52533.69;5048019;28;20617;-75
2021/01/22 05:35:29;;;;;;;3.30;0.83;;;;;;;-144.99;100.00;52576.50;5046770;28;20629;-75
2021/01/22 05:37:55;;;;;;;3.20;0.63;;;;;;;-144.99;100.00;52543.91;5061379;28;20612;-76
2021/01/22 05:40:23;;;;;;;3.53;0.50;;;;;;;-144.99;100.00;52568.34;5057655;28;20631;-75
2021/01/22 05:42:51;;;;;;;2.63;0.77;;;;;;;-144.99;100.00;52527.59;5054852;28;20613;-76
2021/01/22 05:45:19;;;;;;;1.00;0.87;;;;;;;-144.99;100.00;52580.59;5058578;28;20750;-74
2021/01/22 05:47:46;;;;;;;5.47;1.27;;;;;;;-144.99;100.00;52509.25;5039119;28;20710;-73
2021/01/22 05:50:13;;;;;;;5.07;1.13;;;;;;;-144.99;100.00;52554.09;5040243;28;20676;-75
2021/01/22 05:52:40;;;;;;;6.70;1.40;;;;;;;-144.99;100.00;52566.31;5039038;28;20635;-72
2021/01/22 05:55:20;;;;;;;1.80;1.23;;;;;;;-144.99;100.00;52533.69;5043131;28;20640;-76
2021/01/22 05:57:46;;;;;;;1.70;1.40;;;;;;;-144.99;100.00;52505.16;5037459;28;20640;-73
2021/01/22 06:00:14;;;;;;;2.83;1.93;;;;;;;-144.99;100.00;52541.84;5047590;28;20664;-74
2021/01/22 06:02:40;;;;;;;3.23;1.57;;;;;;;-144.99;100.00;52525.56;5037131;28;20723;-74
2021/01/22 06:05:11;;;;;;;3.50;2.20;;;;;;;-144.99;100.00;52525.56;5039678;28;20722;-74
2021/01/22 06:07:39;;;;;;;2.80;1.80;;;;;;;-144.99;100.00;52501.09;5038530;28;20739;-73
2021/01/22 06:10:18;;;;;;;3.27;2.23;;;;;;;-144.99;100.00;52525.56;5042556;28;20779;-74
2021/01/22 06:12:49;;;;;;;2.93;2.03;;;;;;;-144.99;100.00;52513.31;5039752;28;20639;-75
2021/01/22 06:15:19;;;;;;;2.33;1.90;;;;;;;-144.99;100.00;52517.41;5032853;28;20690;-78
2021/01/22 06:17:50;;;;;;;3.23;2.00;;;;;;;-144.99;100.00;52509.25;5036700;28;21196;-77
2021/01/22 06:20:19;;;;;;;4.53;2.27;;;;;;;-144.99;100.00;52509.25;5039207;28;21352;-78
2021/01/22 06:23:05;;;;;;;2.27;1.87;;;;;;;-144.99;100.00;52513.31;5046737;28;20640;-77
2021/01/22 06:25:32;;;;;;;3.57;3.23;;;;;;;-144.99;100.00;52550.00;5041439;28;20656;-75
2021/01/22 06:28:01;;;;;;;4.03;2.00;;;;;;;-144.99;100.00;52517.41;5037950;28;20700;-77
2021/01/22 06:30:29;;;;;;;2.80;1.77;;;;;;;-144.99;100.00;52533.69;5041916;28;20683;-78
2021/01/22 06:32:58;;;;;;;2.87;1.77;;;;;;;-144.99;100.00;52492.94;5034355;28;20625;-77
2021/01/22 06:35:27;;;;;;;2.60;2.00;;;;;;;-144.99;100.00;52517.41;5037858;28;20693;-77
2021/01/22 06:37:54;;;;;;;2.10;1.53;;;;;;;-144.99;100.00;52519.44;5040262;28;20707;-76
2021/01/22 06:40:20;;;;;;;2.10;1.90;;;;;;;-144.99;100.00;52513.31;5031193;28;20660;-76
2021/01/22 06:42:48;;;;;;;1.37;1.23;;;;;;;-144.99;100.00;52533.69;5042707;28;20711;-75
2021/01/22 06:45:15;;;;;;;2.43;1.60;;;;;;;-144.99;100.00;52501.09;5032829;28;20995;-78
2021/01/22 06:47:41;;;;;;;2.30;1.40;;;;;;;-144.99;100.00;52525.56;5037583;28;20617;-76
2021/01/22 06:50:20;;;;;;;5.57;1.63;;;;;;;-144.99;100.00;52501.09;5036361;28;20680;-78
2021/01/22 06:53:09;;;;;;;4.83;1.93;;;;;;;-144.99;100.00;52519.44;5036042;28;20636;-74
2021/01/22 06:56:10;;;;;;;3.13;1.63;;;;;;;-144.99;100.00;52523.50;5036184;28;20617;-75
2021/01/22 06:58:38;;;;;;;2.77;1.77;;;;;;;-144.99;100.00;52529.63;5034264;28;20702;-76
2021/01/22 07:01:28;;;;;;;1.97;1.77;;;;;;;-144.99;100.00;52515.34;5036710;28;20648;-74
2021/01/22 07:03:55;;;;;;;6.47;2.20;;;;;;;-144.99;100.00;52525.56;5047748;28;20666;-75
2021/01/22 07:06:51;;;;;;;4.10;1.87;;;;;;;-144.99;100.00;52550.00;5039570;28;20623;-75
2021/01/22 07:09:18;;;;;;;6.33;1.53;;;;;;;-144.99;100.00;52529.63;5043390;28;20754;-74
2021/01/22 07:11:54;;;;;;;3.10;2.03;;;;;;;-144.99;100.00;52545.94;5036225;28;20647;-74
2021/01/22 07:14:39;;;;;;;2.53;1.67;;;;;;;-144.99;100.00;52550.00;5034777;28;20635;-74
2021/01/22 07:17:20;;;;;;;6.00;2.63;;;;;;;-144.99;100.00;52523.50;5045914;28;20623;-75
2021/01/22 07:19:52;;;;;;;3.80;2.60;;;;;;;-144.99;100.00;52513.31;5035178;28;20647;-76
2021/01/22 07:22:18;;;;;;;2.33;1.93;;;;;;;-144.99;100.00;52523.50;5034603;28;20659;-74
2021/01/22 07:24:47;;;;;;;3.37;2.27;;;;;;;-144.99;100.00;52517.41;5038316;28;20712;-76
2021/01/22 07:27:15;;;;;;;9.63;3.37;;;;;;;-144.99;100.00;52517.41;5039332;28;20635;-75
2021/01/22 07:29:42;;;;;;;4.60;2.73;;;;;;;-144.99;100.00;52517.41;5032130;28;20719;-77
2021/01/22 07:32:11;;;;;;;6.27;2.83;;;;;;;-144.99;100.00;52550.00;5039377;28;20840;-78
2021/01/22 07:34:48;;;;;;;5.93;3.17;;;;;;;-144.99;100.00;52529.63;5040906;28;20640;-77
2021/01/22 07:37:20;;;;;;;5.03;3.03;;;;;;;-144.99;100.00;52533.69;5034532;28;20720;-78
2021/01/22 07:39:47;;;;;;;5.93;3.33;;;;;;;-144.99;100.00;52517.41;5037515;28;20660;-77
2021/01/22 07:42:15;;;;;;;4.40;2.73;;;;;;;-144.99;100.00;52558.16;5033795;28;20671;-77
2021/01/22 07:44:44;;;;;;;4.73;2.83;;;;;;;-144.99;100.00;52519.44;5039867;28;20653;-78
2021/01/22 07:47:23;;;;;;;5.50;2.47;;;;;;;-144.99;100.00;52492.94;5035892;28;20660;-78
2021/01/22 07:49:58;;;;;;;5.07;3.10;;;;;;;-144.99;100.00;52537.78;5036760;28;20669;-77
2021/01/22 07:52:25;;;;;;;9.93;4.37;;;;;;;-144.99;100.00;52545.94;5034657;28;20621;-77
2021/01/22 07:54:51;;;;;;;6.93;3.30;;;;;;;-144.99;100.00;52525.56;5039325;28;20956;-77
2021/01/22 07:57:19;;;;;;;3.83;2.83;;;;;;;-144.99;100.00;52537.78;5035241;28;20633;-76
2021/01/22 07:59:47;;;;;;;4.17;2.77;;;;;;;-144.99;100.00;52509.25;5038028;28;20684;-73
2021/01/22 08:02:15;;;;;;;8.00;3.90;;;;;;;-144.99;100.00;52550.00;5038508;28;20639;-74
2021/01/22 08:04:42;;;;;;;5.20;3.27;;;;;;;-144.99;100.00;52515.34;5035766;28;20628;-75
2021/01/22 08:07:09;;;;;;;3.60;3.07;;;;;;;-144.99;100.00;52521.47;5028505;28;20647;-75
2021/01/22 08:09:35;;;;;;;6.83;4.77;;;;;;;-144.99;100.00;52525.56;5055093;22;20672;-76
2021/01/22 08:12:09;;;;;;;7.67;3.67;;;;;;;-144.99;100.00;52517.41;5025419;28;20655;-74
2021/01/22 08:14:36;;;;;;;6.67;3.23;;;;;;;-144.99;100.00;52519.44;5019654;28;21107;-75
2021/01/22 08:17:05;;;;;;;4.03;3.40;;;;;;;-144.99;100.00;52566.31;5024902;28;21194;-74
2021/01/22 08:19:32;;;;;;;11.43;4.47;;;;;;;-144.99;100.00;52525.56;5015436;28;20980;-74
2021/01/22 08:21:59;;;;;;;9.60;3.70;;;;;;;-144.99;100.00;52486.81;5027046;28;20652;-75
2021/01/22 08:24:26;;;;;;;8.83;5.83;;;;;;;-144.99;100.00;52550.00;5019677;28;20723;-74
2021/01/22 08:26:57;;;;;;;8.90;5.33;;;;;;;-144.99;100.00;52558.16;5030221;28;20633;-74
2021/01/22 08:29:25;;;;;;;13.80;6.53;;;;;;;-144.99;100.00;52521.47;5018277;28;20687;-73
2021/01/22 08:31:52;;;;;;;10.23;5.33;;;;;;;-144.99;100.00;52523.50;5024566;28;21118;-74
2021/01/22 08:34:19;;;;;;;12.10;5.23;;;;;;;-144.99;100.00;52505.16;5021944;28;20628;-74
2021/01/22 08:36:46;;;;;;;8.80;4.60;;;;;;;-144.99;100.00;52521.47;5027952;28;20667;-74
2021/01/22 08:39:12;;;;;;;9.77;5.17;;;;;;;-144.99;100.00;52541.84;5031768;28;22672;-74
2021/01/22 08:41:38;;;;;;;7.57;5.20;;;;;;;-144.99;100.00;52523.50;5024377;28;20628;-74
2021/01/22 08:44:05;;;;;;;6.43;4.33;;;;;;;-144.99;100.00;52523.50;5025748;28;22209;-74
2021/01/22 08:46:32;;;;;;;12.80;6.07;;;;;;;-144.99;100.00;52497.00;5020152;28;20730;-73
2021/01/22 08:48:58;;;;;;;16.60;8.13;;;;;;;-144.99;100.00;52501.09;5019215;28;20775;-74
2021/01/22 08:51:30;;;;;;;8.17;5.33;;;;;;;-144.99;100.00;52478.66;5021996;28;20693;-74
2021/01/22 08:53:57;;;;;;;9.30;4.90;;;;;;;-144.99;100.00;52490.91;5020679;28;20637;-72
2021/01/22 08:56:23;;;;;;;11.33;5.50;;;;;;;-144.99;100.00;52492.94;5010419;28;20622;-73
2021/01/22 08:59:00;;;;;;;7.23;6.00;;;;;;;-144.99;100.00;52486.81;5029222;28;20660;-74
2021/01/22 09:01:49;;;;;;;8.90;4.97;;;;;;;-144.99;100.00;52509.25;5021425;28;21205;-73
2021/01/22 09:04:24;;;;;;;6.47;5.47;;;;;;;-144.99;100.00;52529.63;5015986;28;20629;-74
2021/01/22 09:06:52;;;;;;;10.70;6.33;;;;;;;-144.99;100.00;52509.25;5017181;28;20945;-75
2021/01/22 09:09:43;;;;;;;14.33;4.83;;;;;;;-144.99;100.00;52513.31;5008511;28;20681;-75
2021/01/22 09:12:15;;;;;;;6.97;5.37;;;;;;;-144.99;100.00;52505.16;5024766;28;20635;-74
2021/01/22 09:14:52;;;;;;;7.77;5.87;;;;;;;-144.99;100.00;52492.94;5026512;28;20637;-73
2021/01/22 09:17:27;;;;;;;9.67;4.67;;;;;;;-144.99;100.00;52497.00;5028901;28;20613;-73
2021/01/22 09:19:58;;;;;;;8.10;3.90;;;;;;;-144.99;100.00;52513.31;5025079;28;20656;-73
2021/01/22 09:22:26;;;;;;;7.33;5.33;;;;;;;-144.99;100.00;52525.56;5033815;28;20686;-74
2021/01/22 09:24:53;;;;;;;15.10;5.67;;;;;;;-144.99;100.00;52492.94;5032581;28;20625;-73
2021/01/22 09:27:20;;;;;;;7.77;6.03;;;;;;;-144.99;100.00;52511.28;5034142;28;20621;-72
2021/01/22 09:29:46;;;;;;;13.10;6.13;;;;;;;-144.99;100.00;52519.44;5028379;28;21325;-72
2021/01/22 09:32:12;;;;;;;11.53;4.80;;;;;;;-144.99;100.00;52509.25;5027807;28;20972;-72
2021/01/22 09:34:39;;;;;;;8.50;6.23;;;;;;;-144.99;100.00;52517.41;5008454;28;20694;-75
2021/01/22 09:37:05;;;;;;;8.87;5.67;;;;;;;-144.99;100.00;52497.00;5020623;28;21186;-74
2021/01/22 09:39:32;;;;;;;9.70;6.17;;;;;;;-144.99;100.00;52513.31;5035595;28;20645;-72
2021/01/22 09:41:58;;;;;;;11.33;6.43;;;;;;;-144.99;100.00;52517.41;5010258;28;20636;-72
2021/01/22 09:44:25;;;;;;;7.83;5.53;;;;;;;-144.99;100.00;52501.09;5009036;28;20652;-72
2021/01/22 09:46:51;;;;;;;8.43;7.10;;;;;;;-144.99;100.00;52529.63;5008554;28;21194;-72
2021/01/22 09:49:17;;;;;;;11.77;7.30;;;;;;;-144.99;100.00;52517.41;5011523;28;21428;-72
2021/01/22 09:51:43;;;;;;;12.10;6.37;;;;;;;-144.99;100.00;52521.47;5015949;28;20684;-73
2021/01/22 09:54:10;;;;;;;7.67;5.53;;;;;;;-144.99;100.00;52521.47;5009171;28;20632;-74
2021/01/22 09:56:37;;;;;;;15.97;7.80;;;;;;;-144.99;99.86;52480.72;5011224;28;20760;-75
2021/01/22 09:59:07;;;;;;;8.37;5.20;;;;;;;-144.99;99.34;52484.78;5027360;28;20644;-72
2021/01/22 10:01:33;;;;;;;7.10;5.30;;;;;;;-144.99;99.33;52505.16;5028562;28;20617;-74
2021/01/22 10:04:00;;;;;;;7.80;6.30;;;;;;;-144.99;98.92;52470.50;5026593;28;20660;-74
2021/01/22 10:06:26;;;;;;;11.70;5.60;;;;;;;-144.99;98.61;52492.94;5028297;28;21208;-74
2021/01/22 10:08:53;;;;;;;6.57;5.80;;;;;;;-144.99;97.99;52505.16;5027959;28;20631;-72
2021/01/22 10:11:19;;;;;;;6.70;4.77;;;;;;;-144.99;97.69;52505.16;5028089;28;20982;-75
2021/01/22 10:13:49;;;;;;;8.03;6.33;;;;;;;-144.99;97.44;52476.63;5027928;28;20652;-72
2021/01/22 10:16:15;;;;;;;9.17;5.27;;;;;;;-144.99;97.22;52480.72;5028626;28;21167;-74
2021/01/22 10:18:42;;;;;;;10.47;7.27;;;;;;;-144.99;97.03;52458.28;5027007;28;20628;-74
2021/01/22 10:21:08;;;;;;;9.33;7.17;;;;;;;-144.99;96.03;52484.78;5030092;28;20684;-73
2021/01/22 10:23:34;;;;;;;13.43;6.27;;;;;;;-144.99;92.72;52488.84;5031783;28;20639;-72
2021/01/22 10:26:00;;;;;;;12.87;6.40;;;;;;;-144.99;91.79;52525.56;5031625;28;20624;-73
2021/01/22 10:28:27;;;;;;;11.47;5.90;;;;;;;-144.99;91.47;52472.56;5031144;28;21007;-74
2021/01/22 10:30:54;;;;;;;14.03;5.90;;;;;;;-144.99;91.28;52448.09;5022971;28;20325;-75
2021/01/22 10:33:20;;;;;;;7.80;5.27;;;;;;;-144.99;92.35;52490.91;5031643;28;20710;-74
2021/01/22 10:35:46;;;;;;;13.67;6.63;;;;;;;-144.99;92.86;52511.28;5030141;28;20620;-76
2021/01/22 10:38:14;;;;;;;8.43;4.57;;;;;;;-144.99;92.83;52519.44;5032158;28;21078;-74
2021/01/22 10:40:40;;;;;;;10.80;5.20;;;;;;;-144.99;93.31;52507.19;5029306;28;20641;-74
2021/01/22 10:43:06;;;;;;;7.27;5.47;;;;;;;-144.99;93.76;52492.94;5022860;28;20620;-74
2021/01/22 10:45:33;;;;;;;8.93;5.70;;;;;;;-144.99;93.83;52513.31;5031438;28;20661;-73
2021/01/22 10:48:00;;;;;;;7.20;4.27;;;;;;;-144.99;93.14;52501.09;5030373;28;21056;-73
2021/01/22 10:50:26;;;;;;;12.20;5.23;;;;;;;-144.99;92.70;52494.97;5029565;28;20822;-74
2021/01/22 10:52:52;;;;;;;9.37;4.53;;;;;;;-144.99;91.95;52464.41;5031918;28;21159;-74
2021/01/22 10:55:18;;;;;;;12.23;5.63;;;;;;;-144.99;90.72;52444.03;5031546;28;21043;-73
2021/01/22 10:57:45;;;;;;;11.13;4.63;;;;;;;-144.99;88.41;52415.47;5030936;28;20714;-73
2021/01/22 11:00:13;;;;;;;8.93;4.30;;;;;;;-144.99;86.50;52399.19;5030702;28;20206;-73
2021/01/22 11:02:39;;;;;;;7.33;4.20;;;;;;;-144.99;83.09;52448.09;5031170;28;20662;-73
2021/01/22 11:05:07;;;;;;;11.60;4.57;;;;;;;-144.99;83.39;52446.06;5029917;28;20194;-72
2021/01/22 11:07:34;;;;;;;8.90;4.60;;;;;;;-144.99;82.45;52427.72;5030784;28;20240;-73
2021/01/22 11:10:00;;;;;;;10.63;4.43;;;;;;;-144.99;82.82;52484.78;5031138;28;20231;-71
2021/01/22 11:12:26;;;;;;;7.77;4.53;;;;;;;-144.99;82.79;52423.63;5035329;28;20195;-73
2021/01/22 11:14:52;;;;;;;10.83;4.23;;;;;;;-144.99;82.58;52444.03;5028715;28;20743;-73
2021/01/22 11:17:19;;;;;;;9.43;4.00;;;;;;;-144.99;81.68;52441.97;5030319;28;20202;-74